sensor_id;sensor_type;location;lat;lon;timestamp;temperature;humidity
15656;DHT22;7928;43.614;1.456;2023-03-12T00:02:21;13.90;99.90
15656;DHT22;7928;43.614;1.456;2023-03-12T00:04:48;13.90;99.90
15656;DHT22;7928;43.614;1.456;2023-03-12T00:07:15;13.90;99.90
15656;DHT22;7928;43.614;1.456;2023-03-12T00:09:42;13.90;99.90
15656;DHT22;7928;43.614;1.456;2023-03-12T00:12:11;13.90;99.90
15656;DHT22;7928;43.614;1.456;2023-03-12T00:14:38;13.90;99.90
15656;DHT22;7928;43.614;1.456;2023-03-12T00:17:05;13.90;99.90
15656;DHT22;7928;43.614;1.456;2023-03-12T00:19:32;13.90;99.90
15656;DHT22;7928;43.614;1.456;2023-03-12T00:21:59;13.90;99.90
15656;DHT22;7928;43.614;1.456;2023-03-12T00:24:26;13.90;99.90
15656;DHT22;7928;43.614;1.456;2023-03-12T00:26:53;13.90;99.90
15656;DHT22;7928;43.614;1.456;2023-03-12T00:29:21;13.90;99.90
15656;DHT22;7928;43.614;1.456;2023-03-12T00:31:48;13.90;99.90
15656;DHT22;7928;43.614;1.456;2023-03-12T00:34:16;13.90;99.90
15656;DHT22;7928;43.614;1.456;2023-03-12T00:36:43;13.90;99.90
15656;DHT22;7928;43.614;1.456;2023-03-12T00:39:10;13.90;99.90
15656;DHT22;7928;43.614;1.456;2023-03-12T00:41:37;13.90;99.90
15656;DHT22;7928;43.614;1.456;2023-03-12T00:44:04;13.90;99.90
15656;DHT22;7928;43.614;1.456;2023-03-12T00:46:32;13.90;99.90
15656;DHT22;7928;43.614;1.456;2023-03-12T00:48:59;13.90;99.90
15656;DHT22;7928;43.614;1.456;2023-03-12T00:51:26;13.90;99.90
15656;DHT22;7928;43.614;1.456;2023-03-12T00:53:53;13.80;99.90
15656;DHT22;7928;43.614;1.456;2023-03-12T00:56:21;13.90;99.90
15656;DHT22;7928;43.614;1.456;2023-03-12T00:58:48;13.90;99.90
15656;DHT22;7928;43.614;1.456;2023-03-12T01:01:15;13.90;99.90
15656;DHT22;7928;43.614;1.456;2023-03-12T01:03:43;13.90;99.90
15656;DHT22;7928;43.614;1.456;2023-03-12T01:06:10;13.90;99.90
15656;DHT22;7928;43.614;1.456;2023-03-12T01:08:38;13.90;99.90
15656;DHT22;7928;43.614;1.456;2023-03-12T01:11:05;13.90;99.90
15656;DHT22;7928;43.614;1.456;2023-03-12T01:13:32;13.90;99.90
15656;DHT22;7928;43.614;1.456;2023-03-12T01:15:59;13.90;99.90
15656;DHT22;7928;43.614;1.456;2023-03-12T01:18:26;13.90;99.90
15656;DHT22;7928;43.614;1.456;2023-03-12T01:20:54;13.90;99.90
15656;DHT22;7928;43.614;1.456;2023-03-12T01:23:21;13.90;99.90
15656;DHT22;7928;43.614;1.456;2023-03-12T01:25:48;13.90;99.90
15656;DHT22;7928;43.614;1.456;2023-03-12T01:28:16;13.90;99.90
15656;DHT22;7928;43.614;1.456;2023-03-12T01:30:43;13.90;99.90
15656;DHT22;7928;43.614;1.456;2023-03-12T01:33:12;13.80;99.90
15656;DHT22;7928;43.614;1.456;2023-03-12T01:35:39;13.90;99.90
15656;DHT22;7928;43.614;1.456;2023-03-12T01:38:11;13.90;99.90
15656;DHT22;7928;43.614;1.456;2023-03-12T01:40:38;13.90;99.90
15656;DHT22;7928;43.614;1.456;2023-03-12T01:43:27;13.80;99.90
15656;DHT22;7928;43.614;1.456;2023-03-12T01:46:15;13.80;99.90
15656;DHT22;7928;43.614;1.456;2023-03-12T01:48:49;13.80;99.90
15656;DHT22;7928;43.614;1.456;2023-03-12T01:51:18;13.80;99.90
15656;DHT22;7928;43.614;1.456;2023-03-12T01:53:49;13.80;99.90
15656;DHT22;7928;43.614;1.456;2023-03-12T01:56:18;13.80;99.90
15656;DHT22;7928;43.614;1.456;2023-03-12T01:58:51;13.70;99.90
15656;DHT22;7928;43.614;1.456;2023-03-12T02:01:19;13.70;99.90
15656;DHT22;7928;43.614;1.456;2023-03-12T02:03:49;13.70;99.90
15656;DHT22;7928;43.614;1.456;2023-03-12T02:06:21;13.70;99.90
15656;DHT22;7928;43.614;1.456;2023-03-12T02:08:51;13.70;99.90
15656;DHT22;7928;43.614;1.456;2023-03-12T02:11:19;13.70;99.90
15656;DHT22;7928;43.614;1.456;2023-03-12T02:13:46;13.80;99.90
15656;DHT22;7928;43.614;1.456;2023-03-12T02:16:13;13.70;99.90
15656;DHT22;7928;43.614;1.456;2023-03-12T02:18:40;13.70;99.90
15656;DHT22;7928;43.614;1.456;2023-03-12T02:21:12;13.70;99.90
15656;DHT22;7928;43.614;1.456;2023-03-12T02:23:46;13.70;99.90
15656;DHT22;7928;43.614;1.456;2023-03-12T02:26:15;13.70;99.90
15656;DHT22;7928;43.614;1.456;2023-03-12T02:28:43;13.70;99.90
15656;DHT22;7928;43.614;1.456;2023-03-12T02:31:13;13.70;99.90
15656;DHT22;7928;43.614;1.456;2023-03-12T02:33:41;13.70;99.90
15656;DHT22;7928;43.614;1.456;2023-03-12T02:36:08;13.70;99.90
15656;DHT22;7928;43.614;1.456;2023-03-12T02:38:39;13.70;99.90
15656;DHT22;7928;43.614;1.456;2023-03-12T02:41:16;13.70;99.90
15656;DHT22;7928;43.614;1.456;2023-03-12T02:43:46;13.70;99.90
15656;DHT22;7928;43.614;1.456;2023-03-12T02:46:15;13.70;99.90
15656;DHT22;7928;43.614;1.456;2023-03-12T02:48:42;13.70;99.90
15656;DHT22;7928;43.614;1.456;2023-03-12T02:51:09;13.70;99.90
15656;DHT22;7928;43.614;1.456;2023-03-12T02:53:36;13.70;99.90
15656;DHT22;7928;43.614;1.456;2023-03-12T02:56:03;13.70;99.90
15656;DHT22;7928;43.614;1.456;2023-03-12T02:58:32;13.70;99.90
15656;DHT22;7928;43.614;1.456;2023-03-12T03:00:59;13.70;99.90
15656;DHT22;7928;43.614;1.456;2023-03-12T03:03:26;13.70;99.90
15656;DHT22;7928;43.614;1.456;2023-03-12T03:05:53;13.70;99.90
15656;DHT22;7928;43.614;1.456;2023-03-12T03:08:20;13.70;99.90
15656;DHT22;7928;43.614;1.456;2023-03-12T03:10:49;13.70;99.90
15656;DHT22;7928;43.614;1.456;2023-03-12T03:13:16;13.70;99.90
15656;DHT22;7928;43.614;1.456;2023-03-12T03:15:44;13.70;99.90
15656;DHT22;7928;43.614;1.456;2023-03-12T03:18:11;13.70;99.90
15656;DHT22;7928;43.614;1.456;2023-03-12T03:20:38;13.70;99.90
15656;DHT22;7928;43.614;1.456;2023-03-12T03:23:05;13.70;99.90
15656;DHT22;7928;43.614;1.456;2023-03-12T03:25:33;13.70;99.90
15656;DHT22;7928;43.614;1.456;2023-03-12T03:28:00;13.70;99.90
15656;DHT22;7928;43.614;1.456;2023-03-12T03:30:27;13.70;99.90
15656;DHT22;7928;43.614;1.456;2023-03-12T03:32:55;13.70;99.90
15656;DHT22;7928;43.614;1.456;2023-03-12T03:35:22;13.70;99.90
15656;DHT22;7928;43.614;1.456;2023-03-12T03:37:49;13.70;99.90
15656;DHT22;7928;43.614;1.456;2023-03-12T03:40:16;13.70;99.90
15656;DHT22;7928;43.614;1.456;2023-03-12T03:42:43;13.70;99.90
15656;DHT22;7928;43.614;1.456;2023-03-12T03:45:10;13.70;99.90
15656;DHT22;7928;43.614;1.456;2023-03-12T03:47:37;13.70;99.90
15656;DHT22;7928;43.614;1.456;2023-03-12T03:50:07;13.70;99.90
15656;DHT22;7928;43.614;1.456;2023-03-12T03:52:34;13.70;99.90
15656;DHT22;7928;43.614;1.456;2023-03-12T03:55:01;13.70;99.90
15656;DHT22;7928;43.614;1.456;2023-03-12T03:57:28;13.70;99.90
15656;DHT22;7928;43.614;1.456;2023-03-12T03:59:55;13.60;99.90
15656;DHT22;7928;43.614;1.456;2023-03-12T04:02:25;13.40;99.90
15656;DHT22;7928;43.614;1.456;2023-03-12T04:04:56;13.40;99.90
15656;DHT22;7928;43.614;1.456;2023-03-12T04:07:25;13.40;99.90
15656;DHT22;7928;43.614;1.456;2023-03-12T04:09:52;13.30;99.90
15656;DHT22;7928;43.614;1.456;2023-03-12T04:12:19;13.30;99.90
15656;DHT22;7928;43.614;1.456;2023-03-12T04:14:48;13.20;99.90
15656;DHT22;7928;43.614;1.456;2023-03-12T04:17:15;13.20;99.90
15656;DHT22;7928;43.614;1.456;2023-03-12T04:19:42;13.20;99.90
15656;DHT22;7928;43.614;1.456;2023-03-12T04:22:09;13.20;99.90
15656;DHT22;7928;43.614;1.456;2023-03-12T04:24:38;13.20;99.90
15656;DHT22;7928;43.614;1.456;2023-03-12T04:27:05;13.20;99.90
15656;DHT22;7928;43.614;1.456;2023-03-12T04:29:32;13.10;99.90
15656;DHT22;7928;43.614;1.456;2023-03-12T04:31:59;13.10;99.90
15656;DHT22;7928;43.614;1.456;2023-03-12T04:34:26;13.10;99.90
15656;DHT22;7928;43.614;1.456;2023-03-12T04:36:52;13.10;99.90
15656;DHT22;7928;43.614;1.456;2023-03-12T04:39:20;13.10;99.90
15656;DHT22;7928;43.614;1.456;2023-03-12T04:41:48;13.10;99.90
15656;DHT22;7928;43.614;1.456;2023-03-12T04:44:15;13.10;99.90
15656;DHT22;7928;43.614;1.456;2023-03-12T04:46:42;13.10;99.90
15656;DHT22;7928;43.614;1.456;2023-03-12T04:49:09;13.10;99.90
15656;DHT22;7928;43.614;1.456;2023-03-12T04:51:36;13.10;99.90
15656;DHT22;7928;43.614;1.456;2023-03-12T04:54:03;13.10;99.90
15656;DHT22;7928;43.614;1.456;2023-03-12T04:56:30;13.10;99.90
15656;DHT22;7928;43.614;1.456;2023-03-12T04:58:59;13.10;99.90
15656;DHT22;7928;43.614;1.456;2023-03-12T05:01:27;13.10;99.90
15656;DHT22;7928;43.614;1.456;2023-03-12T05:03:55;13.10;99.90
15656;DHT22;7928;43.614;1.456;2023-03-12T05:06:23;13.00;99.90
15656;DHT22;7928;43.614;1.456;2023-03-12T05:08:50;12.90;99.90
15656;DHT22;7928;43.614;1.456;2023-03-12T05:11:18;12.90;99.90
15656;DHT22;7928;43.614;1.456;2023-03-12T05:13:45;12.90;99.90
15656;DHT22;7928;43.614;1.456;2023-03-12T05:16:14;12.90;99.90
15656;DHT22;7928;43.614;1.456;2023-03-12T05:18:42;12.80;99.90
15656;DHT22;7928;43.614;1.456;2023-03-12T05:21:12;12.70;99.90
15656;DHT22;7928;43.614;1.456;2023-03-12T05:23:39;12.70;99.90
15656;DHT22;7928;43.614;1.456;2023-03-12T05:26:13;12.70;99.90
15656;DHT22;7928;43.614;1.456;2023-03-12T05:28:41;12.70;99.90
15656;DHT22;7928;43.614;1.456;2023-03-12T05:31:09;12.70;99.90
15656;DHT22;7928;43.614;1.456;2023-03-12T05:33:38;12.70;99.90
15656;DHT22;7928;43.614;1.456;2023-03-12T05:36:05;12.80;99.90
15656;DHT22;7928;43.614;1.456;2023-03-12T05:38:33;12.80;99.90
15656;DHT22;7928;43.614;1.456;2023-03-12T05:41:00;12.80;99.90
15656;DHT22;7928;43.614;1.456;2023-03-12T05:43:27;12.80;99.90
15656;DHT22;7928;43.614;1.456;2023-03-12T05:45:57;12.80;99.90
15656;DHT22;7928;43.614;1.456;2023-03-12T05:48:25;12.80;99.90
15656;DHT22;7928;43.614;1.456;2023-03-12T05:50:53;12.80;99.90
15656;DHT22;7928;43.614;1.456;2023-03-12T05:53:20;12.80;99.90
15656;DHT22;7928;43.614;1.456;2023-03-12T05:55:47;12.80;99.90
15656;DHT22;7928;43.614;1.456;2023-03-12T05:58:14;12.80;99.90
15656;DHT22;7928;43.614;1.456;2023-03-12T06:00:41;12.80;99.90
15656;DHT22;7928;43.614;1.456;2023-03-12T06:03:09;12.80;99.90
15656;DHT22;7928;43.614;1.456;2023-03-12T06:05:36;12.80;99.90
15656;DHT22;7928;43.614;1.456;2023-03-12T06:08:05;12.70;99.90
15656;DHT22;7928;43.614;1.456;2023-03-12T06:10:32;12.80;99.90
15656;DHT22;7928;43.614;1.456;2023-03-12T06:12:59;12.80;99.90
15656;DHT22;7928;43.614;1.456;2023-03-12T06:15:26;12.90;99.90
15656;DHT22;7928;43.614;1.456;2023-03-12T06:17:53;12.90;99.90
15656;DHT22;7928;43.614;1.456;2023-03-12T06:20:20;12.80;99.90
15656;DHT22;7928;43.614;1.456;2023-03-12T06:22:48;12.80;99.90
15656;DHT22;7928;43.614;1.456;2023-03-12T06:25:16;12.80;99.90
15656;DHT22;7928;43.614;1.456;2023-03-12T06:27:43;12.80;99.90
15656;DHT22;7928;43.614;1.456;2023-03-12T06:30:11;12.80;99.90
15656;DHT22;7928;43.614;1.456;2023-03-12T06:32:38;12.90;99.90
15656;DHT22;7928;43.614;1.456;2023-03-12T06:35:05;12.80;99.90
15656;DHT22;7928;43.614;1.456;2023-03-12T06:37:32;12.80;99.90
15656;DHT22;7928;43.614;1.456;2023-03-12T06:39:59;12.90;99.90
15656;DHT22;7928;43.614;1.456;2023-03-12T06:42:28;12.90;99.90
15656;DHT22;7928;43.614;1.456;2023-03-12T06:44:55;12.80;99.90
15656;DHT22;7928;43.614;1.456;2023-03-12T06:47:22;12.80;99.90
15656;DHT22;7928;43.614;1.456;2023-03-12T06:49:49;12.90;99.90
15656;DHT22;7928;43.614;1.456;2023-03-12T06:52:15;12.90;99.90
15656;DHT22;7928;43.614;1.456;2023-03-12T06:54:42;12.90;99.90
15656;DHT22;7928;43.614;1.456;2023-03-12T06:57:09;13.00;99.90
15656;DHT22;7928;43.614;1.456;2023-03-12T06:59:38;13.00;99.90
15656;DHT22;7928;43.614;1.456;2023-03-12T07:02:05;13.10;99.90
15656;DHT22;7928;43.614;1.456;2023-03-12T07:04:32;13.10;99.90
15656;DHT22;7928;43.614;1.456;2023-03-12T07:06:59;13.10;99.90
15656;DHT22;7928;43.614;1.456;2023-03-12T07:09:26;13.00;99.90
15656;DHT22;7928;43.614;1.456;2023-03-12T07:11:53;13.10;99.90
15656;DHT22;7928;43.614;1.456;2023-03-12T07:14:20;13.10;99.90
15656;DHT22;7928;43.614;1.456;2023-03-12T07:16:48;13.10;99.90
15656;DHT22;7928;43.614;1.456;2023-03-12T07:19:15;13.10;99.90
15656;DHT22;7928;43.614;1.456;2023-03-12T07:21:44;13.10;99.90
15656;DHT22;7928;43.614;1.456;2023-03-12T07:24:10;13.20;99.90
15656;DHT22;7928;43.614;1.456;2023-03-12T07:26:37;13.20;99.90
15656;DHT22;7928;43.614;1.456;2023-03-12T07:29:04;13.30;99.90
15656;DHT22;7928;43.614;1.456;2023-03-12T07:31:31;13.20;99.90
15656;DHT22;7928;43.614;1.456;2023-03-12T07:34:00;13.30;99.90
15656;DHT22;7928;43.614;1.456;2023-03-12T07:36:27;13.40;99.90
15656;DHT22;7928;43.614;1.456;2023-03-12T07:38:55;13.40;99.90
15656;DHT22;7928;43.614;1.456;2023-03-12T07:41:22;13.40;99.90
15656;DHT22;7928;43.614;1.456;2023-03-12T07:43:49;13.40;99.90
15656;DHT22;7928;43.614;1.456;2023-03-12T07:46:16;13.40;99.90
15656;DHT22;7928;43.614;1.456;2023-03-12T07:48:43;13.40;99.90
15656;DHT22;7928;43.614;1.456;2023-03-12T07:51:12;13.40;99.90
15656;DHT22;7928;43.614;1.456;2023-03-12T07:53:38;13.50;99.90
15656;DHT22;7928;43.614;1.456;2023-03-12T07:56:06;13.50;99.90
15656;DHT22;7928;43.614;1.456;2023-03-12T07:58:33;13.50;99.90
15656;DHT22;7928;43.614;1.456;2023-03-12T08:01:01;13.60;99.90
15656;DHT22;7928;43.614;1.456;2023-03-12T08:03:28;13.70;99.90
15656;DHT22;7928;43.614;1.456;2023-03-12T08:05:56;13.80;99.90
15656;DHT22;7928;43.614;1.456;2023-03-12T08:08:25;13.90;99.90
15656;DHT22;7928;43.614;1.456;2023-03-12T08:10:53;13.90;99.90
15656;DHT22;7928;43.614;1.456;2023-03-12T08:13:20;13.90;99.90
15656;DHT22;7928;43.614;1.456;2023-03-12T08:15:48;14.00;99.90
15656;DHT22;7928;43.614;1.456;2023-03-12T08:18:16;14.00;99.90
15656;DHT22;7928;43.614;1.456;2023-03-12T08:20:43;14.10;99.90
15656;DHT22;7928;43.614;1.456;2023-03-12T08:23:10;14.00;99.90
15656;DHT22;7928;43.614;1.456;2023-03-12T08:25:39;14.10;99.90
15656;DHT22;7928;43.614;1.456;2023-03-12T08:28:07;14.00;99.90
15656;DHT22;7928;43.614;1.456;2023-03-12T08:30:34;14.00;99.90
15656;DHT22;7928;43.614;1.456;2023-03-12T08:33:01;14.10;99.90
15656;DHT22;7928;43.614;1.456;2023-03-12T08:35:28;14.20;99.90
15656;DHT22;7928;43.614;1.456;2023-03-12T08:37:55;14.30;99.90
15656;DHT22;7928;43.614;1.456;2023-03-12T08:40:22;14.30;99.90
15656;DHT22;7928;43.614;1.456;2023-03-12T08:42:50;14.30;99.90
15656;DHT22;7928;43.614;1.456;2023-03-12T08:45:17;14.30;99.90
15656;DHT22;7928;43.614;1.456;2023-03-12T08:47:44;14.40;99.90
15656;DHT22;7928;43.614;1.456;2023-03-12T08:50:13;14.40;99.90
15656;DHT22;7928;43.614;1.456;2023-03-12T08:52:41;14.50;99.90
15656;DHT22;7928;43.614;1.456;2023-03-12T08:55:09;14.50;99.90
15656;DHT22;7928;43.614;1.456;2023-03-12T08:57:36;14.50;99.90
15656;DHT22;7928;43.614;1.456;2023-03-12T09:00:05;14.60;99.90
15656;DHT22;7928;43.614;1.456;2023-03-12T09:02:37;14.50;99.90
15656;DHT22;7928;43.614;1.456;2023-03-12T09:05:05;14.50;99.90
15656;DHT22;7928;43.614;1.456;2023-03-12T09:07:32;14.50;99.90
15656;DHT22;7928;43.614;1.456;2023-03-12T09:09:59;14.50;99.90
15656;DHT22;7928;43.614;1.456;2023-03-12T09:12:26;14.50;99.90
15656;DHT22;7928;43.614;1.456;2023-03-12T09:14:53;14.60;99.90
15656;DHT22;7928;43.614;1.456;2023-03-12T09:17:21;14.70;99.90
15656;DHT22;7928;43.614;1.456;2023-03-12T09:19:48;14.80;99.90
15656;DHT22;7928;43.614;1.456;2023-03-12T09:22:15;14.80;99.90
15656;DHT22;7928;43.614;1.456;2023-03-12T09:24:43;14.90;99.90
15656;DHT22;7928;43.614;1.456;2023-03-12T09:27:09;15.00;99.90
15656;DHT22;7928;43.614;1.456;2023-03-12T09:29:36;15.00;99.90
15656;DHT22;7928;43.614;1.456;2023-03-12T09:32:04;15.00;99.90
15656;DHT22;7928;43.614;1.456;2023-03-12T09:34:32;15.00;99.90
15656;DHT22;7928;43.614;1.456;2023-03-12T09:36:59;14.90;99.90
15656;DHT22;7928;43.614;1.456;2023-03-12T09:39:26;14.80;99.90
15656;DHT22;7928;43.614;1.456;2023-03-12T09:41:53;14.80;99.90
15656;DHT22;7928;43.614;1.456;2023-03-12T09:44:27;14.90;99.90
15656;DHT22;7928;43.614;1.456;2023-03-12T09:46:57;14.90;99.90
15656;DHT22;7928;43.614;1.456;2023-03-12T09:49:33;15.10;99.90
15656;DHT22;7928;43.614;1.456;2023-03-12T09:52:02;15.10;99.90
15656;DHT22;7928;43.614;1.456;2023-03-12T09:54:38;15.20;99.90
15656;DHT22;7928;43.614;1.456;2023-03-12T09:57:11;15.50;99.90
15656;DHT22;7928;43.614;1.456;2023-03-12T09:59:39;15.40;99.90
15656;DHT22;7928;43.614;1.456;2023-03-12T10:02:28;15.60;99.90
15656;DHT22;7928;43.614;1.456;2023-03-12T10:05:05;15.70;99.90
15656;DHT22;7928;43.614;1.456;2023-03-12T10:07:36;16.00;99.90
15656;DHT22;7928;43.614;1.456;2023-03-12T10:10:15;16.40;99.90
15656;DHT22;7928;43.614;1.456;2023-03-12T10:13:03;16.60;99.90
15656;DHT22;7928;43.614;1.456;2023-03-12T10:15:38;16.60;99.90
15656;DHT22;7928;43.614;1.456;2023-03-12T10:18:19;16.60;99.90
15656;DHT22;7928;43.614;1.456;2023-03-12T10:21:00;16.70;99.90
15656;DHT22;7928;43.614;1.456;2023-03-12T10:23:37;16.80;99.90
15656;DHT22;7928;43.614;1.456;2023-03-12T10:26:10;16.90;99.90
15656;DHT22;7928;43.614;1.456;2023-03-12T10:28:42;17.10;99.90
15656;DHT22;7928;43.614;1.456;2023-03-12T10:31:17;17.30;99.90
15656;DHT22;7928;43.614;1.456;2023-03-12T10:33:48;17.40;99.90
15656;DHT22;7928;43.614;1.456;2023-03-12T10:36:20;17.40;99.90
15656;DHT22;7928;43.614;1.456;2023-03-12T10:38:48;17.40;99.90
15656;DHT22;7928;43.614;1.456;2023-03-12T10:41:17;17.50;99.90
15656;DHT22;7928;43.614;1.456;2023-03-12T10:43:44;17.60;99.90
15656;DHT22;7928;43.614;1.456;2023-03-12T10:46:42;17.80;99.90
15656;DHT22;7928;43.614;1.456;2023-03-12T10:49:32;17.50;99.90
15656;DHT22;7928;43.614;1.456;2023-03-12T10:52:04;17.30;99.90
15656;DHT22;7928;43.614;1.456;2023-03-12T10:54:34;17.20;99.90
15656;DHT22;7928;43.614;1.456;2023-03-12T10:57:01;17.10;99.90
15656;DHT22;7928;43.614;1.456;2023-03-12T10:59:31;16.90;99.90
15656;DHT22;7928;43.614;1.456;2023-03-12T11:01:59;17.30;99.90
15656;DHT22;7928;43.614;1.456;2023-03-12T11:04:28;18.00;99.90
15656;DHT22;7928;43.614;1.456;2023-03-12T11:07:17;19.00;99.90
15656;DHT22;7928;43.614;1.456;2023-03-12T11:09:45;19.80;99.90
15656;DHT22;7928;43.614;1.456;2023-03-12T11:12:25;20.30;99.90
15656;DHT22;7928;43.614;1.456;2023-03-12T11:14:53;19.80;99.90
15656;DHT22;7928;43.614;1.456;2023-03-12T11:17:22;19.70;99.90
15656;DHT22;7928;43.614;1.456;2023-03-12T11:19:49;19.60;99.90
15656;DHT22;7928;43.614;1.456;2023-03-12T11:22:30;19.60;99.90
15656;DHT22;7928;43.614;1.456;2023-03-12T11:24:58;20.20;99.90
15656;DHT22;7928;43.614;1.456;2023-03-12T11:27:35;20.50;99.90
15656;DHT22;7928;43.614;1.456;2023-03-12T11:30:05;20.50;99.90
15656;DHT22;7928;43.614;1.456;2023-03-12T11:32:36;20.10;99.90
15656;DHT22;7928;43.614;1.456;2023-03-12T11:35:09;19.30;99.90
15656;DHT22;7928;43.614;1.456;2023-03-12T11:37:44;19.30;99.90
15656;DHT22;7928;43.614;1.456;2023-03-12T11:40:20;19.40;99.90
15656;DHT22;7928;43.614;1.456;2023-03-12T11:43:07;20.10;99.90
15656;DHT22;7928;43.614;1.456;2023-03-12T11:45:46;20.80;99.90
15656;DHT22;7928;43.614;1.456;2023-03-12T11:48:22;20.80;99.90
15656;DHT22;7928;43.614;1.456;2023-03-12T11:51:00;20.40;99.90
15656;DHT22;7928;43.614;1.456;2023-03-12T11:53:48;20.10;99.90
15656;DHT22;7928;43.614;1.456;2023-03-12T11:56:26;19.60;99.90
15656;DHT22;7928;43.614;1.456;2023-03-12T11:59:06;19.40;99.90
15656;DHT22;7928;43.614;1.456;2023-03-12T12:01:47;19.60;99.90
15656;DHT22;7928;43.614;1.456;2023-03-12T12:04:44;19.70;99.90
15656;DHT22;7928;43.614;1.456;2023-03-12T12:07:22;19.70;99.90
15656;DHT22;7928;43.614;1.456;2023-03-12T12:09:58;19.70;99.90
15656;DHT22;7928;43.614;1.456;2023-03-12T12:12:42;19.50;99.90
15656;DHT22;7928;43.614;1.456;2023-03-12T12:15:21;19.10;99.90
15656;DHT22;7928;43.614;1.456;2023-03-12T12:17:58;19.00;99.90
15656;DHT22;7928;43.614;1.456;2023-03-12T12:20:36;18.80;99.90
15656;DHT22;7928;43.614;1.456;2023-03-12T12:23:13;18.80;99.90
15656;DHT22;7928;43.614;1.456;2023-03-12T12:26:10;19.10;99.90
15656;DHT22;7928;43.614;1.456;2023-03-12T12:29:02;19.80;99.90
15656;DHT22;7928;43.614;1.456;2023-03-12T12:31:36;20.40;99.90
15656;DHT22;7928;43.614;1.456;2023-03-12T12:37:36;22.00;99.90
15656;DHT22;7928;43.614;1.456;2023-03-12T12:40:13;22.80;99.90
15656;DHT22;7928;43.614;1.456;2023-03-12T12:42:52;22.60;99.90
15656;DHT22;7928;43.614;1.456;2023-03-12T12:45:24;23.40;99.90
15656;DHT22;7928;43.614;1.456;2023-03-12T12:48:04;25.10;99.90
15656;DHT22;7928;43.614;1.456;2023-03-12T12:50:41;24.10;99.90
15656;DHT22;7928;43.614;1.456;2023-03-12T12:53:18;23.70;99.90
15656;DHT22;7928;43.614;1.456;2023-03-12T12:55:54;23.30;99.90
15656;DHT22;7928;43.614;1.456;2023-03-12T12:58:40;22.90;99.90
15656;DHT22;7928;43.614;1.456;2023-03-12T13:01:13;23.00;99.90
15656;DHT22;7928;43.614;1.456;2023-03-12T13:03:41;23.40;99.90
15656;DHT22;7928;43.614;1.456;2023-03-12T13:06:09;23.30;99.90
15656;DHT22;7928;43.614;1.456;2023-03-12T13:09:03;22.80;99.90
15656;DHT22;7928;43.614;1.456;2023-03-12T13:11:40;24.00;99.90
15656;DHT22;7928;43.614;1.456;2023-03-12T13:14:19;25.50;99.90
15656;DHT22;7928;43.614;1.456;2023-03-12T13:16:47;26.30;99.90
15656;DHT22;7928;43.614;1.456;2023-03-12T13:19:24;26.30;99.90
15656;DHT22;7928;43.614;1.456;2023-03-12T13:22:05;28.10;99.90
15656;DHT22;7928;43.614;1.456;2023-03-12T13:24:41;28.50;99.90
15656;DHT22;7928;43.614;1.456;2023-03-12T13:27:16;26.80;99.90
15656;DHT22;7928;43.614;1.456;2023-03-12T13:29:45;26.30;99.90
15656;DHT22;7928;43.614;1.456;2023-03-12T13:33:04;26.40;99.90
15656;DHT22;7928;43.614;1.456;2023-03-12T13:35:35;25.90;99.90
15656;DHT22;7928;43.614;1.456;2023-03-12T13:38:04;26.90;99.90
15656;DHT22;7928;43.614;1.456;2023-03-12T13:41:03;27.80;99.90
15656;DHT22;7928;43.614;1.456;2023-03-12T13:43:49;28.20;99.90
15656;DHT22;7928;43.614;1.456;2023-03-12T13:46:38;28.20;99.90
15656;DHT22;7928;43.614;1.456;2023-03-12T13:49:12;28.30;99.90
15656;DHT22;7928;43.614;1.456;2023-03-12T13:51:44;28.20;99.90
15656;DHT22;7928;43.614;1.456;2023-03-12T13:54:16;28.80;99.90
15656;DHT22;7928;43.614;1.456;2023-03-12T13:56:54;28.50;99.90
15656;DHT22;7928;43.614;1.456;2023-03-12T13:59:24;28.20;99.90
15656;DHT22;7928;43.614;1.456;2023-03-12T14:01:58;27.20;99.90
15656;DHT22;7928;43.614;1.456;2023-03-12T14:04:31;27.00;99.90
15656;DHT22;7928;43.614;1.456;2023-03-12T14:10:01;29.00;99.90
15656;DHT22;7928;43.614;1.456;2023-03-12T14:12:35;29.40;99.90
15656;DHT22;7928;43.614;1.456;2023-03-12T14:15:12;28.60;99.90
15656;DHT22;7928;43.614;1.456;2023-03-12T14:17:43;27.80;99.90
15656;DHT22;7928;43.614;1.456;2023-03-12T14:20:13;28.60;99.90
15656;DHT22;7928;43.614;1.456;2023-03-12T14:22:43;28.00;99.90
15656;DHT22;7928;43.614;1.456;2023-03-12T14:25:13;28.40;99.90
15656;DHT22;7928;43.614;1.456;2023-03-12T14:27:44;28.70;99.90
15656;DHT22;7928;43.614;1.456;2023-03-12T14:30:17;29.80;99.90
15656;DHT22;7928;43.614;1.456;2023-03-12T14:32:47;30.50;99.90
15656;DHT22;7928;43.614;1.456;2023-03-12T14:35:20;31.50;99.90
15656;DHT22;7928;43.614;1.456;2023-03-12T14:37:54;30.90;99.90
15656;DHT22;7928;43.614;1.456;2023-03-12T14:40:25;31.70;99.90
15656;DHT22;7928;43.614;1.456;2023-03-12T14:42:58;32.10;99.90
15656;DHT22;7928;43.614;1.456;2023-03-12T14:45:26;32.20;99.90
15656;DHT22;7928;43.614;1.456;2023-03-12T14:47:56;32.10;99.90
15656;DHT22;7928;43.614;1.456;2023-03-12T14:50:26;31.10;99.90
15656;DHT22;7928;43.614;1.456;2023-03-12T14:52:54;31.90;99.90
15656;DHT22;7928;43.614;1.456;2023-03-12T14:55:24;30.80;99.90
15656;DHT22;7928;43.614;1.456;2023-03-12T14:58:03;31.50;99.90
15656;DHT22;7928;43.614;1.456;2023-03-12T15:00:30;30.20;99.90
15656;DHT22;7928;43.614;1.456;2023-03-12T15:03:03;30.80;99.90
15656;DHT22;7928;43.614;1.456;2023-03-12T15:05:31;31.80;99.90
15656;DHT22;7928;43.614;1.456;2023-03-12T15:08:02;32.10;99.90
15656;DHT22;7928;43.614;1.456;2023-03-12T15:10:30;32.70;99.10
15656;DHT22;7928;43.614;1.456;2023-03-12T15:12:59;33.00;99.00
15656;DHT22;7928;43.614;1.456;2023-03-12T15:15:33;31.60;98.80
15656;DHT22;7928;43.614;1.456;2023-03-12T15:18:04;31.00;99.90
15656;DHT22;7928;43.614;1.456;2023-03-12T15:20:32;31.40;99.50
15656;DHT22;7928;43.614;1.456;2023-03-12T15:23:00;29.90;99.90
15656;DHT22;7928;43.614;1.456;2023-03-12T15:25:28;28.50;99.90
15656;DHT22;7928;43.614;1.456;2023-03-12T15:28:05;28.10;99.90
15656;DHT22;7928;43.614;1.456;2023-03-12T15:30:33;27.90;99.90
15656;DHT22;7928;43.614;1.456;2023-03-12T15:33:08;27.20;99.90
15656;DHT22;7928;43.614;1.456;2023-03-12T15:35:37;26.60;99.90
15656;DHT22;7928;43.614;1.456;2023-03-12T15:38:04;26.30;99.90
15656;DHT22;7928;43.614;1.456;2023-03-12T15:40:31;26.10;99.90
15656;DHT22;7928;43.614;1.456;2023-03-12T15:42:59;25.90;99.90
15656;DHT22;7928;43.614;1.456;2023-03-12T15:45:34;25.70;99.90
15656;DHT22;7928;43.614;1.456;2023-03-12T15:48:03;25.70;99.90
15656;DHT22;7928;43.614;1.456;2023-03-12T15:50:38;25.30;99.90
15656;DHT22;7928;43.614;1.456;2023-03-12T15:53:24;24.90;99.90
15656;DHT22;7928;43.614;1.456;2023-03-12T15:55:57;24.40;99.90
15656;DHT22;7928;43.614;1.456;2023-03-12T15:58:28;24.00;99.90
15656;DHT22;7928;43.614;1.456;2023-03-12T16:01:06;23.70;99.90
15656;DHT22;7928;43.614;1.456;2023-03-12T16:03:34;23.40;99.90
15656;DHT22;7928;43.614;1.456;2023-03-12T16:06:02;23.10;99.90
15656;DHT22;7928;43.614;1.456;2023-03-12T16:08:34;22.90;99.90
15656;DHT22;7928;43.614;1.456;2023-03-12T16:11:03;22.60;99.90
15656;DHT22;7928;43.614;1.456;2023-03-12T16:13:30;22.50;99.90